sensor_id;sensor_type;location;lat;lon;timestamp;temperature;humidity
57576;DHT22;43412;-33.800;150.804;2023-06-10T00:02:10;22.40;91.60
57576;DHT22;43412;-33.800;150.804;2023-06-10T00:04:37;22.70;91.40
57576;DHT22;43412;-33.800;150.804;2023-06-10T00:07:05;22.90;90.40
57576;DHT22;43412;-33.800;150.804;2023-06-10T00:09:37;23.10;90.10
57576;DHT22;43412;-33.800;150.804;2023-06-10T00:12:08;23.40;88.80
57576;DHT22;43412;-33.800;150.804;2023-06-10T00:14:40;23.70;89.00
57576;DHT22;43412;-33.800;150.804;2023-06-10T00:17:10;24.00;85.90
57576;DHT22;43412;-33.800;150.804;2023-06-10T00:19:38;24.00;86.80
57576;DHT22;43412;-33.800;150.804;2023-06-10T00:22:08;24.00;88.00
57576;DHT22;43412;-33.800;150.804;2023-06-10T00:24:37;24.40;87.20
57576;DHT22;43412;-33.800;150.804;2023-06-10T00:27:04;24.70;86.90
57576;DHT22;43412;-33.800;150.804;2023-06-10T00:29:33;25.00;84.50
57576;DHT22;43412;-33.800;150.804;2023-06-10T00:32:00;25.30;82.60
57576;DHT22;43412;-33.800;150.804;2023-06-10T00:34:28;25.40;82.30
57576;DHT22;43412;-33.800;150.804;2023-06-10T00:36:55;25.20;82.60
57576;DHT22;43412;-33.800;150.804;2023-06-10T00:39:22;25.10;83.00
57576;DHT22;43412;-33.800;150.804;2023-06-10T00:41:50;25.20;83.20
57576;DHT22;43412;-33.800;150.804;2023-06-10T00:44:17;25.60;82.80
57576;DHT22;43412;-33.800;150.804;2023-06-10T00:46:44;26.10;81.60
57576;DHT22;43412;-33.800;150.804;2023-06-10T00:49:12;26.40;80.70
57576;DHT22;43412;-33.800;150.804;2023-06-10T00:51:40;26.70;80.40
57576;DHT22;43412;-33.800;150.804;2023-06-10T00:54:08;26.80;79.40
57576;DHT22;43412;-33.800;150.804;2023-06-10T00:56:35;27.10;78.60
57576;DHT22;43412;-33.800;150.804;2023-06-10T00:59:03;27.30;77.70
57576;DHT22;43412;-33.800;150.804;2023-06-10T01:01:31;27.40;77.70
57576;DHT22;43412;-33.800;150.804;2023-06-10T01:03:58;27.90;75.10
57576;DHT22;43412;-33.800;150.804;2023-06-10T01:09:18;27.50;76.20
57576;DHT22;43412;-33.800;150.804;2023-06-10T01:11:57;27.80;75.70
57576;DHT22;43412;-33.800;150.804;2023-06-10T01:14:26;27.90;74.10
57576;DHT22;43412;-33.800;150.804;2023-06-10T01:16:53;28.10;73.80
57576;DHT22;43412;-33.800;150.804;2023-06-10T01:19:20;28.40;74.00
57576;DHT22;43412;-33.800;150.804;2023-06-10T01:21:51;28.50;73.90
57576;DHT22;43412;-33.800;150.804;2023-06-10T01:24:21;28.70;73.40
57576;DHT22;43412;-33.800;150.804;2023-06-10T01:26:50;28.90;71.60
57576;DHT22;43412;-33.800;150.804;2023-06-10T01:29:31;28.90;71.90
57576;DHT22;43412;-33.800;150.804;2023-06-10T01:32:18;29.00;72.10
57576;DHT22;43412;-33.800;150.804;2023-06-10T01:34:48;29.00;70.30
57576;DHT22;43412;-33.800;150.804;2023-06-10T01:37:19;28.80;71.00
57576;DHT22;43412;-33.800;150.804;2023-06-10T01:39:47;28.50;71.80
57576;DHT22;43412;-33.800;150.804;2023-06-10T01:42:16;28.60;72.10
57576;DHT22;43412;-33.800;150.804;2023-06-10T01:44:44;28.80;71.80
57576;DHT22;43412;-33.800;150.804;2023-06-10T01:47:11;29.00;72.10
57576;DHT22;43412;-33.800;150.804;2023-06-10T01:49:38;29.20;72.50
57576;DHT22;43412;-33.800;150.804;2023-06-10T01:52:06;29.20;71.70
57576;DHT22;43412;-33.800;150.804;2023-06-10T01:54:34;28.90;72.50
57576;DHT22;43412;-33.800;150.804;2023-06-10T01:57:04;28.70;72.90
57576;DHT22;43412;-33.800;150.804;2023-06-10T01:59:32;28.80;72.40
57576;DHT22;43412;-33.800;150.804;2023-06-10T02:02:00;28.70;72.70
57576;DHT22;43412;-33.800;150.804;2023-06-10T02:04:27;29.00;72.30
57576;DHT22;43412;-33.800;150.804;2023-06-10T02:06:54;29.20;72.50
57576;DHT22;43412;-33.800;150.804;2023-06-10T02:09:22;29.20;71.80
57576;DHT22;43412;-33.800;150.804;2023-06-10T02:11:50;29.00;72.20
57576;DHT22;43412;-33.800;150.804;2023-06-10T02:14:18;28.60;72.40
57576;DHT22;43412;-33.800;150.804;2023-06-10T02:16:45;28.70;71.50
57576;DHT22;43412;-33.800;150.804;2023-06-10T02:19:13;28.80;72.50
57576;DHT22;43412;-33.800;150.804;2023-06-10T02:21:41;28.70;71.70
57576;DHT22;43412;-33.800;150.804;2023-06-10T02:24:08;28.70;72.70
57576;DHT22;43412;-33.800;150.804;2023-06-10T02:26:35;28.80;71.80
57576;DHT22;43412;-33.800;150.804;2023-06-10T02:29:03;28.60;72.30
57576;DHT22;43412;-33.800;150.804;2023-06-10T02:31:30;28.60;72.70
57576;DHT22;43412;-33.800;150.804;2023-06-10T02:33:57;28.70;71.50
57576;DHT22;43412;-33.800;150.804;2023-06-10T02:36:25;28.40;71.30
57576;DHT22;43412;-33.800;150.804;2023-06-10T02:38:54;28.30;71.10
57576;DHT22;43412;-33.800;150.804;2023-06-10T02:41:22;28.20;71.20
57576;DHT22;43412;-33.800;150.804;2023-06-10T02:43:51;27.70;70.40
57576;DHT22;43412;-33.800;150.804;2023-06-10T02:46:18;27.50;71.40
57576;DHT22;43412;-33.800;150.804;2023-06-10T02:48:46;27.30;71.50
57576;DHT22;43412;-33.800;150.804;2023-06-10T02:51:15;27.10;71.60
57576;DHT22;43412;-33.800;150.804;2023-06-10T02:53:43;27.10;71.70
57576;DHT22;43412;-33.800;150.804;2023-06-10T02:56:10;26.80;71.20
57576;DHT22;43412;-33.800;150.804;2023-06-10T02:58:39;26.60;72.60
57576;DHT22;43412;-33.800;150.804;2023-06-10T03:01:06;26.20;72.70
57576;DHT22;43412;-33.800;150.804;2023-06-10T03:03:35;25.90;72.30
57576;DHT22;43412;-33.800;150.804;2023-06-10T03:06:08;25.70;72.70
57576;DHT22;43412;-33.800;150.804;2023-06-10T03:08:37;25.50;71.40
57576;DHT22;43412;-33.800;150.804;2023-06-10T03:11:04;25.10;73.10
57576;DHT22;43412;-33.800;150.804;2023-06-10T03:13:32;24.70;72.70
57576;DHT22;43412;-33.800;150.804;2023-06-10T03:16:00;24.50;72.70
57576;DHT22;43412;-33.800;150.804;2023-06-10T03:18:28;24.30;73.50
57576;DHT22;43412;-33.800;150.804;2023-06-10T03:20:55;24.10;73.20
57576;DHT22;43412;-33.800;150.804;2023-06-10T03:23:23;23.80;73.90
57576;DHT22;43412;-33.800;150.804;2023-06-10T03:25:50;23.50;73.40
57576;DHT22;43412;-33.800;150.804;2023-06-10T03:28:18;23.10;74.30
57576;DHT22;43412;-33.800;150.804;2023-06-10T03:30:45;22.70;74.40
57576;DHT22;43412;-33.800;150.804;2023-06-10T03:33:13;22.20;74.90
57576;DHT22;43412;-33.800;150.804;2023-06-10T03:35:41;21.70;74.50
57576;DHT22;43412;-33.800;150.804;2023-06-10T03:38:09;21.40;76.20
57576;DHT22;43412;-33.800;150.804;2023-06-10T03:40:36;21.20;77.20
57576;DHT22;43412;-33.800;150.804;2023-06-10T03:43:03;20.90;77.00
57576;DHT22;43412;-33.800;150.804;2023-06-10T03:45:31;20.60;77.10
57576;DHT22;43412;-33.800;150.804;2023-06-10T03:47:58;20.30;77.20
57576;DHT22;43412;-33.800;150.804;2023-06-10T03:50:26;20.00;77.10
57576;DHT22;43412;-33.800;150.804;2023-06-10T03:52:53;19.80;78.40
57576;DHT22;43412;-33.800;150.804;2023-06-10T03:55:21;19.70;79.30
57576;DHT22;43412;-33.800;150.804;2023-06-10T03:57:50;19.50;78.90
57576;DHT22;43412;-33.800;150.804;2023-06-10T04:00:17;19.30;79.30
57576;DHT22;43412;-33.800;150.804;2023-06-10T04:02:48;19.10;79.20
57576;DHT22;43412;-33.800;150.804;2023-06-10T04:05:19;19.00;80.50
57576;DHT22;43412;-33.800;150.804;2023-06-10T04:07:50;19.00;80.90
57576;DHT22;43412;-33.800;150.804;2023-06-10T04:10:18;18.90;80.90
57576;DHT22;43412;-33.800;150.804;2023-06-10T04:12:45;18.90;80.80
57576;DHT22;43412;-33.800;150.804;2023-06-10T04:15:12;18.80;81.00
57576;DHT22;43412;-33.800;150.804;2023-06-10T04:17:40;18.60;81.30
57576;DHT22;43412;-33.800;150.804;2023-06-10T04:20:08;18.60;83.30
57576;DHT22;43412;-33.800;150.804;2023-06-10T04:22:36;18.50;81.70
57576;DHT22;43412;-33.800;150.804;2023-06-10T04:25:03;18.40;81.30
57576;DHT22;43412;-33.800;150.804;2023-06-10T04:27:31;18.30;82.60
57576;DHT22;43412;-33.800;150.804;2023-06-10T04:29:58;18.10;82.30
57576;DHT22;43412;-33.800;150.804;2023-06-10T04:32:25;18.00;83.00
57576;DHT22;43412;-33.800;150.804;2023-06-10T04:34:53;17.90;84.30
57576;DHT22;43412;-33.800;150.804;2023-06-10T04:37:20;18.00;84.00
57576;DHT22;43412;-33.800;150.804;2023-06-10T04:39:48;17.90;84.00
57576;DHT22;43412;-33.800;150.804;2023-06-10T04:42:15;17.80;84.30
57576;DHT22;43412;-33.800;150.804;2023-06-10T04:44:42;17.80;84.20
57576;DHT22;43412;-33.800;150.804;2023-06-10T04:47:10;17.80;84.70
57576;DHT22;43412;-33.800;150.804;2023-06-10T04:49:37;17.80;84.90
57576;DHT22;43412;-33.800;150.804;2023-06-10T04:52:04;17.70;85.00
57576;DHT22;43412;-33.800;150.804;2023-06-10T04:54:32;17.60;84.20
57576;DHT22;43412;-33.800;150.804;2023-06-10T04:56:59;17.60;84.20
57576;DHT22;43412;-33.800;150.804;2023-06-10T04:59:29;17.60;83.90
57576;DHT22;43412;-33.800;150.804;2023-06-10T05:01:56;17.60;85.10
57576;DHT22;43412;-33.800;150.804;2023-06-10T05:04:25;17.50;84.40
57576;DHT22;43412;-33.800;150.804;2023-06-10T05:06:52;17.50;84.80
57576;DHT22;43412;-33.800;150.804;2023-06-10T05:09:20;17.40;84.00
57576;DHT22;43412;-33.800;150.804;2023-06-10T05:11:47;17.40;84.40
57576;DHT22;43412;-33.800;150.804;2023-06-10T05:14:14;17.40;85.40
57576;DHT22;43412;-33.800;150.804;2023-06-10T05:16:48;17.40;85.50
57576;DHT22;43412;-33.800;150.804;2023-06-10T05:19:15;17.40;85.50
57576;DHT22;43412;-33.800;150.804;2023-06-10T05:21:44;17.30;86.10
57576;DHT22;43412;-33.800;150.804;2023-06-10T05:24:13;17.30;85.70
57576;DHT22;43412;-33.800;150.804;2023-06-10T05:26:40;17.30;84.90
57576;DHT22;43412;-33.800;150.804;2023-06-10T05:29:08;17.20;84.80
57576;DHT22;43412;-33.800;150.804;2023-06-10T05:31:36;17.20;84.60
57576;DHT22;43412;-33.800;150.804;2023-06-10T05:34:03;17.10;85.60
57576;DHT22;43412;-33.800;150.804;2023-06-10T05:36:30;17.10;85.30
57576;DHT22;43412;-33.800;150.804;2023-06-10T05:38:59;17.00;84.80
57576;DHT22;43412;-33.800;150.804;2023-06-10T05:41:26;17.00;85.00
57576;DHT22;43412;-33.800;150.804;2023-06-10T05:43:53;16.90;85.20
57576;DHT22;43412;-33.800;150.804;2023-06-10T05:46:21;16.90;85.70
57576;DHT22;43412;-33.800;150.804;2023-06-10T05:48:48;16.90;85.20
57576;DHT22;43412;-33.800;150.804;2023-06-10T05:51:16;16.90;86.10
57576;DHT22;43412;-33.800;150.804;2023-06-10T05:53:43;16.90;86.10
57576;DHT22;43412;-33.800;150.804;2023-06-10T05:56:14;16.90;86.50
57576;DHT22;43412;-33.800;150.804;2023-06-10T05:58:41;16.80;86.50
57576;DHT22;43412;-33.800;150.804;2023-06-10T06:01:08;16.80;87.00
57576;DHT22;43412;-33.800;150.804;2023-06-10T06:03:36;16.80;87.30
57576;DHT22;43412;-33.800;150.804;2023-06-10T06:06:04;16.90;86.10
57576;DHT22;43412;-33.800;150.804;2023-06-10T06:08:31;16.90;87.60
57576;DHT22;43412;-33.800;150.804;2023-06-10T06:10:59;17.00;88.30
57576;DHT22;43412;-33.800;150.804;2023-06-10T06:13:27;17.10;87.60
57576;DHT22;43412;-33.800;150.804;2023-06-10T06:15:54;17.20;88.50
57576;DHT22;43412;-33.800;150.804;2023-06-10T06:18:22;17.20;89.40
57576;DHT22;43412;-33.800;150.804;2023-06-10T06:20:50;17.30;89.60
57576;DHT22;43412;-33.800;150.804;2023-06-10T06:23:17;17.30;89.80
57576;DHT22;43412;-33.800;150.804;2023-06-10T06:25:45;17.30;89.60
57576;DHT22;43412;-33.800;150.804;2023-06-10T06:28:12;17.20;89.20
57576;DHT22;43412;-33.800;150.804;2023-06-10T06:30:39;17.10;89.20
57576;DHT22;43412;-33.800;150.804;2023-06-10T06:33:06;17.00;89.10
57576;DHT22;43412;-33.800;150.804;2023-06-10T06:35:34;16.90;89.50
57576;DHT22;43412;-33.800;150.804;2023-06-10T06:38:01;16.80;89.20
57576;DHT22;43412;-33.800;150.804;2023-06-10T06:40:30;16.50;89.00
57576;DHT22;43412;-33.800;150.804;2023-06-10T06:42:58;16.40;88.70
57576;DHT22;43412;-33.800;150.804;2023-06-10T06:45:25;16.20;90.20
57576;DHT22;43412;-33.800;150.804;2023-06-10T06:47:52;16.00;90.00
57576;DHT22;43412;-33.800;150.804;2023-06-10T06:50:19;15.80;90.40
57576;DHT22;43412;-33.800;150.804;2023-06-10T06:52:47;15.70;90.30
57576;DHT22;43412;-33.800;150.804;2023-06-10T06:55:14;15.50;90.50
57576;DHT22;43412;-33.800;150.804;2023-06-10T06:57:42;15.40;91.10
57576;DHT22;43412;-33.800;150.804;2023-06-10T07:00:10;15.20;91.60
57576;DHT22;43412;-33.800;150.804;2023-06-10T07:02:38;15.10;91.90
57576;DHT22;43412;-33.800;150.804;2023-06-10T07:05:05;15.00;92.80
57576;DHT22;43412;-33.800;150.804;2023-06-10T07:07:33;14.80;93.10
57576;DHT22;43412;-33.800;150.804;2023-06-10T07:10:01;14.60;93.20
57576;DHT22;43412;-33.800;150.804;2023-06-10T07:12:28;14.50;93.10
57576;DHT22;43412;-33.800;150.804;2023-06-10T07:14:55;14.40;93.40
57576;DHT22;43412;-33.800;150.804;2023-06-10T07:17:22;14.20;93.80
57576;DHT22;43412;-33.800;150.804;2023-06-10T07:19:50;14.10;94.10
57576;DHT22;43412;-33.800;150.804;2023-06-10T07:22:18;14.00;94.70
57576;DHT22;43412;-33.800;150.804;2023-06-10T07:24:45;13.80;95.10
57576;DHT22;43412;-33.800;150.804;2023-06-10T07:27:12;13.70;94.90
57576;DHT22;43412;-33.800;150.804;2023-06-10T07:29:41;13.60;95.50
57576;DHT22;43412;-33.800;150.804;2023-06-10T07:32:08;13.60;95.90
57576;DHT22;43412;-33.800;150.804;2023-06-10T07:34:36;13.50;96.00
57576;DHT22;43412;-33.800;150.804;2023-06-10T07:37:03;13.40;96.20
57576;DHT22;43412;-33.800;150.804;2023-06-10T07:39:30;13.40;96.40
57576;DHT22;43412;-33.800;150.804;2023-06-10T07:41:58;13.30;96.90
57576;DHT22;43412;-33.800;150.804;2023-06-10T07:44:25;13.10;97.30
57576;DHT22;43412;-33.800;150.804;2023-06-10T07:46:52;13.00;97.80
57576;DHT22;43412;-33.800;150.804;2023-06-10T07:49:20;12.90;98.10
57576;DHT22;43412;-33.800;150.804;2023-06-10T07:51:47;12.80;98.30
57576;DHT22;43412;-33.800;150.804;2023-06-10T07:54:14;12.70;98.60
57576;DHT22;43412;-33.800;150.804;2023-06-10T07:56:42;12.60;98.80
57576;DHT22;43412;-33.800;150.804;2023-06-10T07:59:09;12.50;99.00
57576;DHT22;43412;-33.800;150.804;2023-06-10T08:01:36;12.40;99.20
57576;DHT22;43412;-33.800;150.804;2023-06-10T08:04:06;12.40;99.40
57576;DHT22;43412;-33.800;150.804;2023-06-10T08:06:34;12.30;99.80
57576;DHT22;43412;-33.800;150.804;2023-06-10T08:09:03;12.20;99.70
57576;DHT22;43412;-33.800;150.804;2023-06-10T08:11:31;12.20;99.80
57576;DHT22;43412;-33.800;150.804;2023-06-10T08:13:58;12.10;99.90
57576;DHT22;43412;-33.800;150.804;2023-06-10T08:16:25;12.10;99.90
57576;DHT22;43412;-33.800;150.804;2023-06-10T08:18:52;12.00;99.90
57576;DHT22;43412;-33.800;150.804;2023-06-10T08:21:20;11.90;99.90
57576;DHT22;43412;-33.800;150.804;2023-06-10T08:23:47;11.90;99.90
57576;DHT22;43412;-33.800;150.804;2023-06-10T08:26:14;11.80;99.90
57576;DHT22;43412;-33.800;150.804;2023-06-10T08:28:42;11.70;99.90
57576;DHT22;43412;-33.800;150.804;2023-06-10T08:31:10;11.70;99.90
57576;DHT22;43412;-33.800;150.804;2023-06-10T08:33:37;11.60;99.90
57576;DHT22;43412;-33.800;150.804;2023-06-10T08:36:04;11.60;99.90
57576;DHT22;43412;-33.800;150.804;2023-06-10T08:38:32;11.50;99.90
57576;DHT22;43412;-33.800;150.804;2023-06-10T08:41:01;11.40;99.90
57576;DHT22;43412;-33.800;150.804;2023-06-10T08:43:39;11.30;99.90
57576;DHT22;43412;-33.800;150.804;2023-06-10T08:46:09;11.30;99.90
57576;DHT22;43412;-33.800;150.804;2023-06-10T08:48:43;11.20;99.90
57576;DHT22;43412;-33.800;150.804;2023-06-10T08:51:11;11.10;99.90
57576;DHT22;43412;-33.800;150.804;2023-06-10T08:53:48;11.10;99.90
57576;DHT22;43412;-33.800;150.804;2023-06-10T08:56:17;11.00;99.90
57576;DHT22;43412;-33.800;150.804;2023-06-10T08:58:45;11.00;99.90
57576;DHT22;43412;-33.800;150.804;2023-06-10T09:01:13;11.00;99.90
57576;DHT22;43412;-33.800;150.804;2023-06-10T09:03:42;11.00;99.90
57576;DHT22;43412;-33.800;150.804;2023-06-10T09:06:10;11.00;99.90
57576;DHT22;43412;-33.800;150.804;2023-06-10T09:08:40;10.90;99.90
57576;DHT22;43412;-33.800;150.804;2023-06-10T09:11:08;10.90;99.90
57576;DHT22;43412;-33.800;150.804;2023-06-10T09:13:35;10.90;99.90
57576;DHT22;43412;-33.800;150.804;2023-06-10T09:16:03;10.90;99.90
57576;DHT22;43412;-33.800;150.804;2023-06-10T09:18:30;10.80;99.90
57576;DHT22;43412;-33.800;150.804;2023-06-10T09:20:58;10.80;99.90
57576;DHT22;43412;-33.800;150.804;2023-06-10T09:23:26;10.70;99.90
57576;DHT22;43412;-33.800;150.804;2023-06-10T09:25:57;10.70;99.90
57576;DHT22;43412;-33.800;150.804;2023-06-10T09:28:25;10.70;99.90
57576;DHT22;43412;-33.800;150.804;2023-06-10T09:31:12;10.60;99.90
57576;DHT22;43412;-33.800;150.804;2023-06-10T09:33:40;10.60;99.90
57576;DHT22;43412;-33.800;150.804;2023-06-10T09:36:07;10.50;99.90
57576;DHT22;43412;-33.800;150.804;2023-06-10T09:38:37;10.50;99.90
57576;DHT22;43412;-33.800;150.804;2023-06-10T09:41:04;10.50;99.90
57576;DHT22;43412;-33.800;150.804;2023-06-10T09:43:43;10.40;99.90
57576;DHT22;43412;-33.800;150.804;2023-06-10T09:46:17;10.40;99.90
57576;DHT22;43412;-33.800;150.804;2023-06-10T09:48:46;10.40;99.90
57576;DHT22;43412;-33.800;150.804;2023-06-10T09:51:16;10.40;99.90
57576;DHT22;43412;-33.800;150.804;2023-06-10T09:53:47;10.30;99.90
57576;DHT22;43412;-33.800;150.804;2023-06-10T09:56:15;10.30;99.90
57576;DHT22;43412;-33.800;150.804;2023-06-10T09:58:42;10.20;99.90
57576;DHT22;43412;-33.800;150.804;2023-06-10T10:01:14;10.10;99.90
57576;DHT22;43412;-33.800;150.804;2023-06-10T10:03:50;10.10;99.90
57576;DHT22;43412;-33.800;150.804;2023-06-10T10:06:18;10.00;99.90
57576;DHT22;43412;-33.800;150.804;2023-06-10T10:08:48;10.00;99.90
57576;DHT22;43412;-33.800;150.804;2023-06-10T10:11:20;10.00;99.90
57576;DHT22;43412;-33.800;150.804;2023-06-10T10:13:53;9.90;99.90
57576;DHT22;43412;-33.800;150.804;2023-06-10T10:16:33;9.90;99.90
57576;DHT22;43412;-33.800;150.804;2023-06-10T10:21:53;9.80;99.90
57576;DHT22;43412;-33.800;150.804;2023-06-10T10:24:42;9.80;99.90
57576;DHT22;43412;-33.800;150.804;2023-06-10T10:27:28;9.70;99.90
57576;DHT22;43412;-33.800;150.804;2023-06-10T10:29:55;9.70;99.90
57576;DHT22;43412;-33.800;150.804;2023-06-10T10:32:32;9.60;99.90
57576;DHT22;43412;-33.800;150.804;2023-06-10T10:35:03;9.60;99.90
57576;DHT22;43412;-33.800;150.804;2023-06-10T10:37:35;9.60;99.90
57576;DHT22;43412;-33.800;150.804;2023-06-10T10:40:03;9.60;99.90
57576;DHT22;43412;-33.800;150.804;2023-06-10T10:42:31;9.60;99.90
57576;DHT22;43412;-33.800;150.804;2023-06-10T10:44:59;9.60;99.90
57576;DHT22;43412;-33.800;150.804;2023-06-10T10:47:28;9.60;99.90
57576;DHT22;43412;-33.800;150.804;2023-06-10T10:49:57;9.50;99.90
57576;DHT22;43412;-33.800;150.804;2023-06-10T10:52:28;9.50;99.90
57576;DHT22;43412;-33.800;150.804;2023-06-10T10:55:13;9.50;99.90
57576;DHT22;43412;-33.800;150.804;2023-06-10T10:57:41;9.50;99.90
57576;DHT22;43412;-33.800;150.804;2023-06-10T11:00:10;9.50;99.90
57576;DHT22;43412;-33.800;150.804;2023-06-10T11:02:45;9.50;99.90
57576;DHT22;43412;-33.800;150.804;2023-06-10T11:05:17;9.50;99.90
57576;DHT22;43412;-33.800;150.804;2023-06-10T11:07:55;9.40;99.90
57576;DHT22;43412;-33.800;150.804;2023-06-10T11:10:38;9.40;99.90
57576;DHT22;43412;-33.800;150.804;2023-06-10T11:13:15;9.30;99.90
57576;DHT22;43412;-33.800;150.804;2023-06-10T11:15:50;9.30;99.90
57576;DHT22;43412;-33.800;150.804;2023-06-10T11:18:28;9.20;99.90
57576;DHT22;43412;-33.800;150.804;2023-06-10T11:21:03;9.20;99.90
57576;DHT22;43412;-33.800;150.804;2023-06-10T11:23:39;9.10;99.90
57576;DHT22;43412;-33.800;150.804;2023-06-10T11:31:26;9.00;99.90
57576;DHT22;43412;-33.800;150.804;2023-06-10T11:34:01;8.90;99.90
57576;DHT22;43412;-33.800;150.804;2023-06-10T11:36:30;8.90;99.90
57576;DHT22;43412;-33.800;150.804;2023-06-10T11:38:59;8.80;99.90
57576;DHT22;43412;-33.800;150.804;2023-06-10T11:41:28;8.70;99.90
57576;DHT22;43412;-33.800;150.804;2023-06-10T11:44:04;8.70;99.90
57576;DHT22;43412;-33.800;150.804;2023-06-10T11:46:32;8.60;99.90
57576;DHT22;43412;-33.800;150.804;2023-06-10T11:49:01;8.60;99.90
57576;DHT22;43412;-33.800;150.804;2023-06-10T11:51:41;8.50;99.90
57576;DHT22;43412;-33.800;150.804;2023-06-10T11:54:15;8.50;99.90
57576;DHT22;43412;-33.800;150.804;2023-06-10T11:56:43;8.50;99.90
57576;DHT22;43412;-33.800;150.804;2023-06-10T11:59:10;8.50;99.90
57576;DHT22;43412;-33.800;150.804;2023-06-10T12:01:43;8.40;99.90
57576;DHT22;43412;-33.800;150.804;2023-06-10T12:04:13;8.50;99.90
57576;DHT22;43412;-33.800;150.804;2023-06-10T12:06:52;8.40;99.90
57576;DHT22;43412;-33.800;150.804;2023-06-10T12:09:27;8.40;99.90
57576;DHT22;43412;-33.800;150.804;2023-06-10T12:12:02;8.40;99.90
57576;DHT22;43412;-33.800;150.804;2023-06-10T12:15:08;8.30;99.90
57576;DHT22;43412;-33.800;150.804;2023-06-10T12:17:37;8.20;99.90
57576;DHT22;43412;-33.800;150.804;2023-06-10T12:20:06;8.10;99.90
57576;DHT22;43412;-33.800;150.804;2023-06-10T12:22:42;8.00;99.90
57576;DHT22;43412;-33.800;150.804;2023-06-10T12:25:10;7.90;99.90
57576;DHT22;43412;-33.800;150.804;2023-06-10T12:27:39;7.80;99.90
57576;DHT22;43412;-33.800;150.804;2023-06-10T12:30:08;7.80;99.90
57576;DHT22;43412;-33.800;150.804;2023-06-10T12:32:41;7.70;99.90
57576;DHT22;43412;-33.800;150.804;2023-06-10T12:35:09;7.70;99.90
57576;DHT22;43412;-33.800;150.804;2023-06-10T12:37:41;7.60;99.90
57576;DHT22;43412;-33.800;150.804;2023-06-10T12:40:09;7.60;99.90
57576;DHT22;43412;-33.800;150.804;2023-06-10T12:42:38;7.50;99.90
57576;DHT22;43412;-33.800;150.804;2023-06-10T12:45:06;7.50;99.90
57576;DHT22;43412;-33.800;150.804;2023-06-10T12:47:36;7.50;99.90
57576;DHT22;43412;-33.800;150.804;2023-06-10T12:50:07;7.50;99.90
57576;DHT22;43412;-33.800;150.804;2023-06-10T12:52:35;7.50;99.90
57576;DHT22;43412;-33.800;150.804;2023-06-10T12:55:02;7.50;99.90
57576;DHT22;43412;-33.800;150.804;2023-06-10T12:57:30;7.50;99.90
57576;DHT22;43412;-33.800;150.804;2023-06-10T12:59:58;7.50;99.90
57576;DHT22;43412;-33.800;150.804;2023-06-10T13:02:30;7.50;99.90
57576;DHT22;43412;-33.800;150.804;2023-06-10T13:04:58;7.50;99.90
57576;DHT22;43412;-33.800;150.804;2023-06-10T13:07:25;7.60;99.90
57576;DHT22;43412;-33.800;150.804;2023-06-10T13:09:53;7.60;99.90
57576;DHT22;43412;-33.800;150.804;2023-06-10T13:12:20;7.70;99.90
57576;DHT22;43412;-33.800;150.804;2023-06-10T13:14:49;7.60;99.90
57576;DHT22;43412;-33.800;150.804;2023-06-10T13:17:16;7.60;99.90
57576;DHT22;43412;-33.800;150.804;2023-06-10T13:19:43;7.50;99.90
57576;DHT22;43412;-33.800;150.804;2023-06-10T13:22:11;7.50;99.90
57576;DHT22;43412;-33.800;150.804;2023-06-10T13:24:41;7.40;99.90
57576;DHT22;43412;-33.800;150.804;2023-06-10T13:27:10;7.40;99.90
57576;DHT22;43412;-33.800;150.804;2023-06-10T13:29:37;7.40;99.90
57576;DHT22;43412;-33.800;150.804;2023-06-10T13:32:05;7.30;99.90
57576;DHT22;43412;-33.800;150.804;2023-06-10T13:34:32;7.30;99.90
57576;DHT22;43412;-33.800;150.804;2023-06-10T13:37:00;7.30;99.90
57576;DHT22;43412;-33.800;150.804;2023-06-10T13:39:27;7.20;99.90
57576;DHT22;43412;-33.800;150.804;2023-06-10T13:41:54;7.10;99.90
57576;DHT22;43412;-33.800;150.804;2023-06-10T13:44:22;7.10;99.90
57576;DHT22;43412;-33.800;150.804;2023-06-10T13:46:49;7.00;99.90
57576;DHT22;43412;-33.800;150.804;2023-06-10T13:49:16;7.00;99.90
57576;DHT22;43412;-33.800;150.804;2023-06-10T13:51:44;7.00;99.90
57576;DHT22;43412;-33.800;150.804;2023-06-10T13:54:12;7.00;99.90
57576;DHT22;43412;-33.800;150.804;2023-06-10T13:56:42;6.90;99.90
57576;DHT22;43412;-33.800;150.804;2023-06-10T13:59:09;6.80;99.90
57576;DHT22;43412;-33.800;150.804;2023-06-10T14:01:36;6.80;99.90
57576;DHT22;43412;-33.800;150.804;2023-06-10T14:04:04;6.70;99.90
57576;DHT22;43412;-33.800;150.804;2023-06-10T14:06:31;6.70;99.90
57576;DHT22;43412;-33.800;150.804;2023-06-10T14:09:03;6.70;99.90
57576;DHT22;43412;-33.800;150.804;2023-06-10T14:11:31;6.70;99.90
57576;DHT22;43412;-33.800;150.804;2023-06-10T14:13:58;6.60;99.90
57576;DHT22;43412;-33.800;150.804;2023-06-10T14:16:27;6.60;99.90
57576;DHT22;43412;-33.800;150.804;2023-06-10T14:18:54;6.60;99.90
57576;DHT22;43412;-33.800;150.804;2023-06-10T14:21:22;6.50;99.90
57576;DHT22;43412;-33.800;150.804;2023-06-10T14:23:49;6.50;99.90
57576;DHT22;43412;-33.800;150.804;2023-06-10T14:26:18;6.40;99.90
57576;DHT22;43412;-33.800;150.804;2023-06-10T14:28:49;6.40;99.90
57576;DHT22;43412;-33.800;150.804;2023-06-10T14:31:16;6.30;99.90
57576;DHT22;43412;-33.800;150.804;2023-06-10T14:33:44;6.20;99.90
57576;DHT22;43412;-33.800;150.804;2023-06-10T14:36:11;6.10;99.90
57576;DHT22;43412;-33.800;150.804;2023-06-10T14:38:39;6.10;99.90
57576;DHT22;43412;-33.800;150.804;2023-06-10T14:41:06;6.10;99.90
57576;DHT22;43412;-33.800;150.804;2023-06-10T14:43:33;6.10;99.90
57576;DHT22;43412;-33.800;150.804;2023-06-10T14:46:00;6.10;99.90
57576;DHT22;43412;-33.800;150.804;2023-06-10T14:48:28;6.10;99.90
57576;DHT22;43412;-33.800;150.804;2023-06-10T14:50:55;6.10;99.90
57576;DHT22;43412;-33.800;150.804;2023-06-10T14:53:23;6.20;99.90
57576;DHT22;43412;-33.800;150.804;2023-06-10T14:55:50;6.20;99.90
57576;DHT22;43412;-33.800;150.804;2023-06-10T14:58:18;6.20;99.90
57576;DHT22;43412;-33.800;150.804;2023-06-10T15:00:45;6.20;99.90
57576;DHT22;43412;-33.800;150.804;2023-06-10T15:03:12;6.20;99.90
57576;DHT22;43412;-33.800;150.804;2023-06-10T15:05:40;6.20;99.90
57576;DHT22;43412;-33.800;150.804;2023-06-10T15:08:07;6.20;99.90
57576;DHT22;43412;-33.800;150.804;2023-06-10T15:10:34;6.10;99.90
57576;DHT22;43412;-33.800;150.804;2023-06-10T15:13:02;6.10;99.90
57576;DHT22;43412;-33.800;150.804;2023-06-10T15:15:29;6.00;99.90